sensor_id;sensor_type;location;lat;lon;timestamp;P1;durP1;ratioP1;P2;durP2;ratioP2
56927;SDS011;60850;52.502;13.426;2023-03-31T00:01:26;6.00;;;2.00;;
56927;SDS011;60850;52.502;13.426;2023-03-31T00:03:54;5.07;;;2.30;;
56927;SDS011;60850;52.502;13.426;2023-03-31T00:06:29;3.35;;;1.90;;
56927;SDS011;60850;52.502;13.426;2023-03-31T00:08:57;8.27;;;2.53;;
56927;SDS011;60850;52.502;13.426;2023-03-31T00:11:26;3.55;;;1.63;;
56927;SDS011;60850;52.502;13.426;2023-03-31T00:13:54;2.75;;;1.98;;
56927;SDS011;60850;52.502;13.426;2023-03-31T00:16:22;5.78;;;1.85;;
56927;SDS011;60850;52.502;13.426;2023-03-31T00:18:49;6.45;;;1.98;;
56927;SDS011;60850;52.502;13.426;2023-03-31T00:21:17;4.88;;;1.75;;
56927;SDS011;60850;52.502;13.426;2023-03-31T00:23:54;7.82;;;1.63;;
56927;SDS011;60850;52.502;13.426;2023-03-31T00:26:22;5.00;;;1.38;;
56927;SDS011;60850;52.502;13.426;2023-03-31T00:28:52;5.38;;;1.77;;
56927;SDS011;60850;52.502;13.426;2023-03-31T00:31:20;7.68;;;1.85;;
56927;SDS011;60850;52.502;13.426;2023-03-31T00:33:49;2.88;;;1.60;;
56927;SDS011;60850;52.502;13.426;2023-03-31T00:36:16;3.65;;;1.50;;
56927;SDS011;60850;52.502;13.426;2023-03-31T00:38:45;5.57;;;1.88;;
56927;SDS011;60850;52.502;13.426;2023-03-31T00:41:13;5.05;;;1.52;;
56927;SDS011;60850;52.502;13.426;2023-03-31T00:43:58;6.47;;;2.20;;
56927;SDS011;60850;52.502;13.426;2023-03-31T00:46:39;2.97;;;1.52;;
56927;SDS011;60850;52.502;13.426;2023-03-31T00:49:15;7.43;;;2.17;;
56927;SDS011;60850;52.502;13.426;2023-03-31T00:51:46;4.43;;;1.70;;
56927;SDS011;60850;52.502;13.426;2023-03-31T00:54:15;8.70;;;2.05;;
56927;SDS011;60850;52.502;13.426;2023-03-31T00:56:46;5.07;;;1.83;;
56927;SDS011;60850;52.502;13.426;2023-03-31T00:59:17;4.03;;;1.70;;
56927;SDS011;60850;52.502;13.426;2023-03-31T01:01:46;2.75;;;1.42;;
56927;SDS011;60850;52.502;13.426;2023-03-31T01:04:16;6.80;;;1.40;;
56927;SDS011;60850;52.502;13.426;2023-03-31T01:06:49;5.15;;;1.45;;
56927;SDS011;60850;52.502;13.426;2023-03-31T01:09:25;5.60;;;1.80;;
56927;SDS011;60850;52.502;13.426;2023-03-31T01:11:59;5.55;;;1.33;;
56927;SDS011;60850;52.502;13.426;2023-03-31T01:14:37;7.15;;;1.90;;
56927;SDS011;60850;52.502;13.426;2023-03-31T01:17:04;5.75;;;1.40;;
56927;SDS011;60850;52.502;13.426;2023-03-31T01:19:38;6.20;;;1.40;;
56927;SDS011;60850;52.502;13.426;2023-03-31T01:22:24;6.75;;;1.60;;
56927;SDS011;60850;52.502;13.426;2023-03-31T01:25:36;2.72;;;0.90;;
56927;SDS011;60850;52.502;13.426;2023-03-31T01:28:22;5.40;;;1.60;;
56927;SDS011;60850;52.502;13.426;2023-03-31T01:31:01;4.97;;;1.60;;
56927;SDS011;60850;52.502;13.426;2023-03-31T01:37:22;5.00;;;1.45;;
56927;SDS011;60850;52.502;13.426;2023-03-31T01:40:25;4.68;;;1.10;;
56927;SDS011;60850;52.502;13.426;2023-03-31T01:43:07;4.22;;;1.35;;
56927;SDS011;60850;52.502;13.426;2023-03-31T01:45:43;5.80;;;1.45;;
56927;SDS011;60850;52.502;13.426;2023-03-31T01:48:18;5.90;;;1.42;;
56927;SDS011;60850;52.502;13.426;2023-03-31T01:50:52;4.18;;;1.50;;
56927;SDS011;60850;52.502;13.426;2023-03-31T01:53:25;3.95;;;1.27;;
56927;SDS011;60850;52.502;13.426;2023-03-31T01:56:00;2.00;;;1.15;;
56927;SDS011;60850;52.502;13.426;2023-03-31T01:58:31;3.67;;;1.00;;
56927;SDS011;60850;52.502;13.426;2023-03-31T02:01:05;5.68;;;1.25;;
56927;SDS011;60850;52.502;13.426;2023-03-31T02:03:41;3.42;;;1.10;;
56927;SDS011;60850;52.502;13.426;2023-03-31T02:06:14;7.30;;;1.02;;
56927;SDS011;60850;52.502;13.426;2023-03-31T02:08:49;2.35;;;0.95;;
56927;SDS011;60850;52.502;13.426;2023-03-31T02:11:22;3.55;;;1.20;;
56927;SDS011;60850;52.502;13.426;2023-03-31T02:13:51;6.43;;;1.23;;
56927;SDS011;60850;52.502;13.426;2023-03-31T02:16:21;3.80;;;1.15;;
56927;SDS011;60850;52.502;13.426;2023-03-31T02:18:52;3.92;;;1.13;;
56927;SDS011;60850;52.502;13.426;2023-03-31T02:21:27;4.57;;;1.13;;
56927;SDS011;60850;52.502;13.426;2023-03-31T02:23:54;3.67;;;1.00;;
56927;SDS011;60850;52.502;13.426;2023-03-31T02:26:26;3.78;;;1.08;;
56927;SDS011;60850;52.502;13.426;2023-03-31T02:28:56;4.70;;;1.17;;
56927;SDS011;60850;52.502;13.426;2023-03-31T02:31:25;1.63;;;1.10;;
56927;SDS011;60850;52.502;13.426;2023-03-31T02:33:54;3.20;;;1.50;;
56927;SDS011;60850;52.502;13.426;2023-03-31T02:36:21;3.97;;;1.30;;
56927;SDS011;60850;52.502;13.426;2023-03-31T02:38:50;2.47;;;1.33;;
56927;SDS011;60850;52.502;13.426;2023-03-31T02:41:20;5.32;;;1.40;;
56927;SDS011;60850;52.502;13.426;2023-03-31T02:43:49;7.25;;;1.35;;
56927;SDS011;60850;52.502;13.426;2023-03-31T02:46:16;5.47;;;0.90;;
56927;SDS011;60850;52.502;13.426;2023-03-31T02:48:43;3.58;;;1.10;;
56927;SDS011;60850;52.502;13.426;2023-03-31T02:51:19;5.82;;;1.15;;
56927;SDS011;60850;52.502;13.426;2023-03-31T02:54:18;4.07;;;1.52;;
56927;SDS011;60850;52.502;13.426;2023-03-31T02:57:06;2.20;;;0.90;;
56927;SDS011;60850;52.502;13.426;2023-03-31T02:59:46;4.00;;;1.15;;
56927;SDS011;60850;52.502;13.426;2023-03-31T03:02:23;2.40;;;1.08;;
56927;SDS011;60850;52.502;13.426;2023-03-31T03:07:55;3.47;;;0.80;;
56927;SDS011;60850;52.502;13.426;2023-03-31T03:10:34;3.58;;;1.00;;
56927;SDS011;60850;52.502;13.426;2023-03-31T03:13:13;3.08;;;1.30;;
56927;SDS011;60850;52.502;13.426;2023-03-31T03:15:48;4.65;;;1.30;;
56927;SDS011;60850;52.502;13.426;2023-03-31T03:18:20;4.95;;;1.45;;
56927;SDS011;60850;52.502;13.426;2023-03-31T03:20:47;2.72;;;1.10;;
56927;SDS011;60850;52.502;13.426;2023-03-31T03:23:15;3.33;;;1.10;;
56927;SDS011;60850;52.502;13.426;2023-03-31T03:25:42;3.22;;;0.93;;
56927;SDS011;60850;52.502;13.426;2023-03-31T03:28:10;2.97;;;1.02;;
56927;SDS011;60850;52.502;13.426;2023-03-31T03:30:37;4.22;;;1.70;;
56927;SDS011;60850;52.502;13.426;2023-03-31T03:33:05;3.65;;;1.55;;
56927;SDS011;60850;52.502;13.426;2023-03-31T03:35:32;2.35;;;1.05;;
56927;SDS011;60850;52.502;13.426;2023-03-31T03:37:59;5.03;;;1.30;;
56927;SDS011;60850;52.502;13.426;2023-03-31T03:40:26;2.30;;;0.85;;
56927;SDS011;60850;52.502;13.426;2023-03-31T03:42:53;5.03;;;1.02;;
56927;SDS011;60850;52.502;13.426;2023-03-31T03:45:20;6.43;;;1.33;;
56927;SDS011;60850;52.502;13.426;2023-03-31T03:47:47;5.35;;;1.50;;
56927;SDS011;60850;52.502;13.426;2023-03-31T03:50:16;4.15;;;1.00;;
56927;SDS011;60850;52.502;13.426;2023-03-31T03:52:43;4.03;;;1.15;;
56927;SDS011;60850;52.502;13.426;2023-03-31T03:55:10;2.30;;;0.90;;
56927;SDS011;60850;52.502;13.426;2023-03-31T03:57:38;4.80;;;0.88;;
56927;SDS011;60850;52.502;13.426;2023-03-31T04:00:05;3.25;;;1.10;;
56927;SDS011;60850;52.502;13.426;2023-03-31T04:02:34;2.13;;;1.10;;
56927;SDS011;60850;52.502;13.426;2023-03-31T04:05:01;5.05;;;1.17;;
56927;SDS011;60850;52.502;13.426;2023-03-31T04:07:30;2.50;;;0.95;;
56927;SDS011;60850;52.502;13.426;2023-03-31T04:09:57;3.97;;;1.00;;
56927;SDS011;60850;52.502;13.426;2023-03-31T04:12:24;1.58;;;0.75;;
56927;SDS011;60850;52.502;13.426;2023-03-31T04:14:51;3.10;;;1.10;;
56927;SDS011;60850;52.502;13.426;2023-03-31T04:17:18;5.20;;;1.20;;
56927;SDS011;60850;52.502;13.426;2023-03-31T04:19:56;2.75;;;1.08;;
56927;SDS011;60850;52.502;13.426;2023-03-31T04:22:26;3.60;;;1.20;;
56927;SDS011;60850;52.502;13.426;2023-03-31T04:25:00;4.93;;;1.20;;
56927;SDS011;60850;52.502;13.426;2023-03-31T04:27:28;2.83;;;1.15;;
56927;SDS011;60850;52.502;13.426;2023-03-31T04:29:55;1.90;;;1.20;;
56927;SDS011;60850;52.502;13.426;2023-03-31T04:32:22;3.80;;;1.13;;
56927;SDS011;60850;52.502;13.426;2023-03-31T04:34:49;2.50;;;1.55;;
56927;SDS011;60850;52.502;13.426;2023-03-31T04:37:16;3.50;;;0.90;;
56927;SDS011;60850;52.502;13.426;2023-03-31T04:39:43;3.28;;;1.00;;
56927;SDS011;60850;52.502;13.426;2023-03-31T04:42:16;2.63;;;1.20;;
56927;SDS011;60850;52.502;13.426;2023-03-31T04:44:43;4.45;;;1.20;;
56927;SDS011;60850;52.502;13.426;2023-03-31T04:47:10;2.45;;;1.10;;
56927;SDS011;60850;52.502;13.426;2023-03-31T04:49:37;4.53;;;1.60;;
56927;SDS011;60850;52.502;13.426;2023-03-31T04:52:04;5.63;;;1.67;;
56927;SDS011;60850;52.502;13.426;2023-03-31T04:54:31;3.42;;;1.30;;
56927;SDS011;60850;52.502;13.426;2023-03-31T04:56:58;4.38;;;1.33;;
56927;SDS011;60850;52.502;13.426;2023-03-31T04:59:26;4.50;;;2.08;;
56927;SDS011;60850;52.502;13.426;2023-03-31T05:01:53;4.25;;;1.42;;
56927;SDS011;60850;52.502;13.426;2023-03-31T05:04:20;2.53;;;1.20;;
56927;SDS011;60850;52.502;13.426;2023-03-31T05:06:47;3.75;;;1.38;;
56927;SDS011;60850;52.502;13.426;2023-03-31T05:09:14;2.63;;;1.77;;
56927;SDS011;60850;52.502;13.426;2023-03-31T05:11:42;5.65;;;1.30;;
56927;SDS011;60850;52.502;13.426;2023-03-31T05:14:08;2.97;;;1.48;;
56927;SDS011;60850;52.502;13.426;2023-03-31T05:16:37;5.65;;;1.70;;
56927;SDS011;60850;52.502;13.426;2023-03-31T05:19:04;3.97;;;1.42;;
56927;SDS011;60850;52.502;13.426;2023-03-31T05:21:31;5.75;;;1.50;;
56927;SDS011;60850;52.502;13.426;2023-03-31T05:23:58;7.45;;;1.40;;
56927;SDS011;60850;52.502;13.426;2023-03-31T05:26:25;5.00;;;1.70;;
56927;SDS011;60850;52.502;13.426;2023-03-31T05:28:52;3.95;;;1.40;;
56927;SDS011;60850;52.502;13.426;2023-03-31T05:31:19;3.45;;;1.20;;
56927;SDS011;60850;52.502;13.426;2023-03-31T05:33:48;4.57;;;1.50;;
56927;SDS011;60850;52.502;13.426;2023-03-31T05:36:15;5.70;;;1.92;;
56927;SDS011;60850;52.502;13.426;2023-03-31T05:38:43;6.22;;;1.73;;
56927;SDS011;60850;52.502;13.426;2023-03-31T05:41:10;5.45;;;1.30;;
56927;SDS011;60850;52.502;13.426;2023-03-31T05:43:37;5.30;;;1.40;;
56927;SDS011;60850;52.502;13.426;2023-03-31T05:46:04;4.07;;;1.17;;
56927;SDS011;60850;52.502;13.426;2023-03-31T05:48:31;4.40;;;1.40;;
56927;SDS011;60850;52.502;13.426;2023-03-31T05:51:00;12.57;;;2.83;;
56927;SDS011;60850;52.502;13.426;2023-03-31T05:53:27;7.75;;;2.63;;
56927;SDS011;60850;52.502;13.426;2023-03-31T05:55:55;4.85;;;1.50;;
56927;SDS011;60850;52.502;13.426;2023-03-31T05:58:23;5.28;;;1.85;;
56927;SDS011;60850;52.502;13.426;2023-03-31T06:00:58;1.95;;;1.00;;
56927;SDS011;60850;52.502;13.426;2023-03-31T06:03:26;4.55;;;1.35;;
56927;SDS011;60850;52.502;13.426;2023-03-31T06:05:53;6.50;;;1.63;;
56927;SDS011;60850;52.502;13.426;2023-03-31T06:08:22;3.67;;;0.93;;
56927;SDS011;60850;52.502;13.426;2023-03-31T06:10:49;6.22;;;1.73;;
56927;SDS011;60850;52.502;13.426;2023-03-31T06:13:16;2.58;;;1.05;;
56927;SDS011;60850;52.502;13.426;2023-03-31T06:15:51;5.57;;;1.00;;
56927;SDS011;60850;52.502;13.426;2023-03-31T06:18:18;2.63;;;0.95;;
56927;SDS011;60850;52.502;13.426;2023-03-31T06:20:46;3.90;;;1.48;;
56927;SDS011;60850;52.502;13.426;2023-03-31T06:23:12;4.35;;;1.10;;
56927;SDS011;60850;52.502;13.426;2023-03-31T06:25:41;2.63;;;1.10;;
56927;SDS011;60850;52.502;13.426;2023-03-31T06:28:09;7.57;;;1.40;;
56927;SDS011;60850;52.502;13.426;2023-03-31T06:30:36;7.00;;;2.08;;
56927;SDS011;60850;52.502;13.426;2023-03-31T06:33:04;6.95;;;1.73;;
56927;SDS011;60850;52.502;13.426;2023-03-31T06:35:31;4.85;;;1.33;;
56927;SDS011;60850;52.502;13.426;2023-03-31T06:37:58;6.82;;;1.30;;
56927;SDS011;60850;52.502;13.426;2023-03-31T06:40:25;5.60;;;1.38;;
56927;SDS011;60850;52.502;13.426;2023-03-31T06:42:54;2.15;;;0.80;;
56927;SDS011;60850;52.502;13.426;2023-03-31T06:45:22;5.45;;;1.55;;
56927;SDS011;60850;52.502;13.426;2023-03-31T06:47:49;3.35;;;1.10;;
56927;SDS011;60850;52.502;13.426;2023-03-31T06:50:16;6.88;;;1.98;;
56927;SDS011;60850;52.502;13.426;2023-03-31T06:52:43;6.78;;;1.77;;
56927;SDS011;60850;52.502;13.426;2023-03-31T06:55:14;5.90;;;1.85;;
56927;SDS011;60850;52.502;13.426;2023-03-31T06:57:42;3.55;;;1.40;;
56927;SDS011;60850;52.502;13.426;2023-03-31T07:00:11;4.97;;;1.10;;
56927;SDS011;60850;52.502;13.426;2023-03-31T07:02:39;6.43;;;1.85;;
56927;SDS011;60850;52.502;13.426;2023-03-31T07:05:06;9.07;;;2.30;;
56927;SDS011;60850;52.502;13.426;2023-03-31T07:07:34;3.75;;;1.50;;
56927;SDS011;60850;52.502;13.426;2023-03-31T07:10:01;4.47;;;1.20;;
56927;SDS011;60850;52.502;13.426;2023-03-31T07:12:31;4.05;;;1.27;;
56927;SDS011;60850;52.502;13.426;2023-03-31T07:14:58;4.38;;;1.20;;
56927;SDS011;60850;52.502;13.426;2023-03-31T07:17:26;2.95;;;1.25;;
56927;SDS011;60850;52.502;13.426;2023-03-31T07:19:54;5.47;;;1.58;;
56927;SDS011;60850;52.502;13.426;2023-03-31T07:22:22;3.58;;;1.30;;
56927;SDS011;60850;52.502;13.426;2023-03-31T07:24:49;4.53;;;1.80;;
56927;SDS011;60850;52.502;13.426;2023-03-31T07:27:16;3.55;;;1.42;;
56927;SDS011;60850;52.502;13.426;2023-03-31T07:29:43;4.95;;;1.20;;
56927;SDS011;60850;52.502;13.426;2023-03-31T07:32:09;3.80;;;1.40;;
56927;SDS011;60850;52.502;13.426;2023-03-31T07:34:38;7.13;;;1.75;;
56927;SDS011;60850;52.502;13.426;2023-03-31T07:37:05;5.97;;;1.48;;
56927;SDS011;60850;52.502;13.426;2023-03-31T07:39:33;5.15;;;1.55;;
56927;SDS011;60850;52.502;13.426;2023-03-31T07:42:00;7.63;;;1.52;;
56927;SDS011;60850;52.502;13.426;2023-03-31T07:44:27;4.50;;;1.20;;
56927;SDS011;60850;52.502;13.426;2023-03-31T07:46:54;4.60;;;1.45;;
56927;SDS011;60850;52.502;13.426;2023-03-31T07:49:23;4.35;;;1.23;;
56927;SDS011;60850;52.502;13.426;2023-03-31T07:51:51;4.20;;;1.38;;
56927;SDS011;60850;52.502;13.426;2023-03-31T07:54:18;6.32;;;1.40;;
56927;SDS011;60850;52.502;13.426;2023-03-31T07:56:45;6.88;;;1.70;;
56927;SDS011;60850;52.502;13.426;2023-03-31T07:59:12;7.47;;;1.77;;
56927;SDS011;60850;52.502;13.426;2023-03-31T08:01:39;5.50;;;1.50;;
56927;SDS011;60850;52.502;13.426;2023-03-31T08:04:06;5.65;;;1.83;;
56927;SDS011;60850;52.502;13.426;2023-03-31T08:06:33;2.90;;;1.15;;
56927;SDS011;60850;52.502;13.426;2023-03-31T08:09:02;4.78;;;1.50;;
56927;SDS011;60850;52.502;13.426;2023-03-31T08:11:31;4.80;;;1.15;;
56927;SDS011;60850;52.502;13.426;2023-03-31T08:13:58;4.30;;;1.27;;
56927;SDS011;60850;52.502;13.426;2023-03-31T08:16:25;4.25;;;1.65;;
56927;SDS011;60850;52.502;13.426;2023-03-31T08:18:52;7.00;;;1.38;;
56927;SDS011;60850;52.502;13.426;2023-03-31T08:21:19;3.63;;;1.17;;
56927;SDS011;60850;52.502;13.426;2023-03-31T08:23:46;3.85;;;0.98;;
56927;SDS011;60850;52.502;13.426;2023-03-31T08:26:15;4.15;;;0.88;;
56927;SDS011;60850;52.502;13.426;2023-03-31T08:28:43;2.58;;;1.40;;
56927;SDS011;60850;52.502;13.426;2023-03-31T08:31:12;5.95;;;1.45;;
56927;SDS011;60850;52.502;13.426;2023-03-31T08:33:40;2.92;;;1.20;;
56927;SDS011;60850;52.502;13.426;2023-03-31T08:36:07;5.18;;;1.10;;
56927;SDS011;60850;52.502;13.426;2023-03-31T08:38:35;4.57;;;1.15;;
56927;SDS011;60850;52.502;13.426;2023-03-31T08:41:03;4.35;;;1.00;;
56927;SDS011;60850;52.502;13.426;2023-03-31T08:43:36;5.05;;;0.95;;
56927;SDS011;60850;52.502;13.426;2023-03-31T08:46:09;2.88;;;1.20;;
56927;SDS011;60850;52.502;13.426;2023-03-31T08:48:38;5.18;;;1.40;;
56927;SDS011;60850;52.502;13.426;2023-03-31T08:51:11;5.20;;;1.00;;
56927;SDS011;60850;52.502;13.426;2023-03-31T08:53:46;4.78;;;1.30;;
56927;SDS011;60850;52.502;13.426;2023-03-31T08:56:17;3.92;;;1.20;;
56927;SDS011;60850;52.502;13.426;2023-03-31T08:58:48;2.97;;;1.23;;
56927;SDS011;60850;52.502;13.426;2023-03-31T09:01:19;5.85;;;1.00;;
56927;SDS011;60850;52.502;13.426;2023-03-31T09:03:59;2.47;;;1.23;;
56927;SDS011;60850;52.502;13.426;2023-03-31T09:06:43;7.63;;;1.33;;
56927;SDS011;60850;52.502;13.426;2023-03-31T09:11:49;7.85;;;1.40;;
56927;SDS011;60850;52.502;13.426;2023-03-31T09:14:25;5.47;;;1.30;;
56927;SDS011;60850;52.502;13.426;2023-03-31T09:16:58;4.32;;;1.95;;
56927;SDS011;60850;52.502;13.426;2023-03-31T09:19:37;5.07;;;1.67;;
56927;SDS011;60850;52.502;13.426;2023-03-31T09:22:10;3.17;;;1.10;;
56927;SDS011;60850;52.502;13.426;2023-03-31T09:24:47;6.78;;;1.20;;
56927;SDS011;60850;52.502;13.426;2023-03-31T09:27:17;4.35;;;1.70;;
56927;SDS011;60850;52.502;13.426;2023-03-31T09:29:48;3.15;;;1.10;;
56927;SDS011;60850;52.502;13.426;2023-03-31T09:32:19;5.15;;;1.50;;
56927;SDS011;60850;52.502;13.426;2023-03-31T09:34:49;6.32;;;1.50;;
56927;SDS011;60850;52.502;13.426;2023-03-31T09:37:18;4.00;;;1.88;;
56927;SDS011;60850;52.502;13.426;2023-03-31T09:39:45;4.75;;;0.95;;
56927;SDS011;60850;52.502;13.426;2023-03-31T09:42:12;3.45;;;0.80;;
56927;SDS011;60850;52.502;13.426;2023-03-31T09:44:40;5.00;;;1.40;;
56927;SDS011;60850;52.502;13.426;2023-03-31T09:47:12;4.55;;;1.02;;
56927;SDS011;60850;52.502;13.426;2023-03-31T09:49:45;8.02;;;1.23;;
56927;SDS011;60850;52.502;13.426;2023-03-31T09:52:14;5.20;;;1.20;;
56927;SDS011;60850;52.502;13.426;2023-03-31T09:54:45;4.20;;;1.40;;
56927;SDS011;60850;52.502;13.426;2023-03-31T09:57:22;3.30;;;1.25;;
56927;SDS011;60850;52.502;13.426;2023-03-31T09:59:52;4.68;;;1.35;;
56927;SDS011;60850;52.502;13.426;2023-03-31T10:02:34;4.43;;;1.30;;
56927;SDS011;60850;52.502;13.426;2023-03-31T10:05:05;5.68;;;1.30;;
56927;SDS011;60850;52.502;13.426;2023-03-31T10:07:43;4.70;;;1.65;;
56927;SDS011;60850;52.502;13.426;2023-03-31T10:10:16;2.22;;;1.10;;
56927;SDS011;60850;52.502;13.426;2023-03-31T10:12:52;4.30;;;1.30;;
56927;SDS011;60850;52.502;13.426;2023-03-31T10:15:20;7.22;;;2.20;;
56927;SDS011;60850;52.502;13.426;2023-03-31T10:17:52;4.68;;;1.80;;
56927;SDS011;60850;52.502;13.426;2023-03-31T10:20:26;4.65;;;1.80;;
56927;SDS011;60850;52.502;13.426;2023-03-31T10:23:01;2.78;;;1.38;;
56927;SDS011;60850;52.502;13.426;2023-03-31T10:25:30;6.25;;;1.55;;
56927;SDS011;60850;52.502;13.426;2023-03-31T10:27:59;4.68;;;1.85;;
56927;SDS011;60850;52.502;13.426;2023-03-31T10:30:29;7.63;;;1.90;;
56927;SDS011;60850;52.502;13.426;2023-03-31T10:33:01;3.97;;;1.80;;
56927;SDS011;60850;52.502;13.426;2023-03-31T10:35:32;2.83;;;1.67;;
56927;SDS011;60850;52.502;13.426;2023-03-31T10:38:02;5.55;;;1.77;;
56927;SDS011;60850;52.502;13.426;2023-03-31T10:40:32;4.95;;;1.92;;
56927;SDS011;60850;52.502;13.426;2023-03-31T10:43:02;2.92;;;1.98;;
56927;SDS011;60850;52.502;13.426;2023-03-31T10:45:36;3.97;;;1.85;;
56927;SDS011;60850;52.502;13.426;2023-03-31T10:48:15;3.38;;;2.08;;
56927;SDS011;60850;52.502;13.426;2023-03-31T10:50:44;3.35;;;2.10;;
56927;SDS011;60850;52.502;13.426;2023-03-31T10:53:12;4.45;;;1.65;;
56927;SDS011;60850;52.502;13.426;2023-03-31T10:55:42;3.22;;;1.70;;
56927;SDS011;60850;52.502;13.426;2023-03-31T10:58:21;4.10;;;1.65;;
56927;SDS011;60850;52.502;13.426;2023-03-31T11:01:02;4.30;;;2.10;;
56927;SDS011;60850;52.502;13.426;2023-03-31T11:03:46;4.00;;;1.98;;
56927;SDS011;60850;52.502;13.426;2023-03-31T11:06:26;4.85;;;2.33;;
56927;SDS011;60850;52.502;13.426;2023-03-31T11:09:02;2.63;;;2.38;;
56927;SDS011;60850;52.502;13.426;2023-03-31T11:11:47;7.05;;;2.88;;
56927;SDS011;60850;52.502;13.426;2023-03-31T11:14:25;5.82;;;2.35;;
56927;SDS011;60850;52.502;13.426;2023-03-31T11:17:08;5.85;;;1.90;;
56927;SDS011;60850;52.502;13.426;2023-03-31T11:19:51;3.97;;;2.00;;
56927;SDS011;60850;52.502;13.426;2023-03-31T11:22:27;10.43;;;2.05;;
56927;SDS011;60850;52.502;13.426;2023-03-31T11:25:08;6.35;;;1.90;;
56927;SDS011;60850;52.502;13.426;2023-03-31T11:27:51;2.65;;;1.40;;
56927;SDS011;60850;52.502;13.426;2023-03-31T11:30:41;3.67;;;1.50;;
56927;SDS011;60850;52.502;13.426;2023-03-31T11:33:21;3.65;;;1.23;;
56927;SDS011;60850;52.502;13.426;2023-03-31T11:36:02;5.32;;;1.85;;
56927;SDS011;60850;52.502;13.426;2023-03-31T11:38:46;4.47;;;1.70;;
56927;SDS011;60850;52.502;13.426;2023-03-31T11:41:22;5.22;;;1.77;;
56927;SDS011;60850;52.502;13.426;2023-03-31T11:43:56;4.97;;;1.27;;
56927;SDS011;60850;52.502;13.426;2023-03-31T11:46:30;3.90;;;1.35;;
56927;SDS011;60850;52.502;13.426;2023-03-31T11:49:01;5.03;;;1.40;;
56927;SDS011;60850;52.502;13.426;2023-03-31T11:51:33;2.58;;;1.13;;
56927;SDS011;60850;52.502;13.426;2023-03-31T11:54:08;3.83;;;1.65;;
56927;SDS011;60850;52.502;13.426;2023-03-31T11:56:41;6.90;;;1.50;;
56927;SDS011;60850;52.502;13.426;2023-03-31T11:59:10;5.47;;;1.90;;
56927;SDS011;60850;52.502;13.426;2023-03-31T12:01:41;3.55;;;1.60;;
56927;SDS011;60850;52.502;13.426;2023-03-31T12:04:18;5.75;;;1.83;;
56927;SDS011;60850;52.502;13.426;2023-03-31T12:06:57;6.70;;;2.83;;
56927;SDS011;60850;52.502;13.426;2023-03-31T12:09:29;5.43;;;2.65;;
56927;SDS011;60850;52.502;13.426;2023-03-31T12:12:04;5.25;;;2.88;;
56927;SDS011;60850;52.502;13.426;2023-03-31T12:14:36;6.93;;;3.33;;
56927;SDS011;60850;52.502;13.426;2023-03-31T12:17:08;6.85;;;2.70;;
56927;SDS011;60850;52.502;13.426;2023-03-31T12:19:40;7.05;;;2.47;;
56927;SDS011;60850;52.502;13.426;2023-03-31T12:22:15;3.50;;;2.08;;
56927;SDS011;60850;52.502;13.426;2023-03-31T12:24:46;2.93;;;2.60;;
56927;SDS011;60850;52.502;13.426;2023-03-31T12:27:14;5.82;;;2.50;;
56927;SDS011;60850;52.502;13.426;2023-03-31T12:29:47;4.97;;;2.13;;
56927;SDS011;60850;52.502;13.426;2023-03-31T12:32:22;4.18;;;1.70;;
56927;SDS011;60850;52.502;13.426;2023-03-31T12:34:54;3.53;;;1.55;;
56927;SDS011;60850;52.502;13.426;2023-03-31T12:37:45;3.90;;;1.50;;
56927;SDS011;60850;52.502;13.426;2023-03-31T12:40:37;3.55;;;1.70;;
56927;SDS011;60850;52.502;13.426;2023-03-31T12:43:27;3.45;;;1.40;;
56927;SDS011;60850;52.502;13.426;2023-03-31T12:46:22;3.45;;;1.40;;
56927;SDS011;60850;52.502;13.426;2023-03-31T12:49:08;1.65;;;0.90;;
56927;SDS011;60850;52.502;13.426;2023-03-31T12:51:55;2.42;;;1.23;;
56927;SDS011;60850;52.502;13.426;2023-03-31T12:54:31;3.72;;;0.90;;
56927;SDS011;60850;52.502;13.426;2023-03-31T12:57:12;1.35;;;0.82;;
56927;SDS011;60850;52.502;13.426;2023-03-31T12:59:41;1.00;;;0.52;;
56927;SDS011;60850;52.502;13.426;2023-03-31T13:02:16;2.85;;;0.85;;
56927;SDS011;60850;52.502;13.426;2023-03-31T13:04:48;4.05;;;1.00;;
56927;SDS011;60850;52.502;13.426;2023-03-31T13:07:33;3.60;;;0.95;;
56927;SDS011;60850;52.502;13.426;2023-03-31T13:13:00;2.87;;;1.60;;
56927;SDS011;60850;52.502;13.426;2023-03-31T13:15:29;3.80;;;1.63;;
56927;SDS011;60850;52.502;13.426;2023-03-31T13:17:58;4.22;;;1.60;;
56927;SDS011;60850;52.502;13.426;2023-03-31T13:20:29;3.13;;;1.73;;
56927;SDS011;60850;52.502;13.426;2023-03-31T13:23:01;6.68;;;1.77;;
56927;SDS011;60850;52.502;13.426;2023-03-31T13:25:43;5.45;;;2.00;;
56927;SDS011;60850;52.502;13.426;2023-03-31T13:28:16;4.65;;;2.28;;
56927;SDS011;60850;52.502;13.426;2023-03-31T13:30:51;5.93;;;3.30;;
56927;SDS011;60850;52.502;13.426;2023-03-31T13:33:24;5.70;;;3.03;;
56927;SDS011;60850;52.502;13.426;2023-03-31T13:35:56;7.50;;;3.33;;
56927;SDS011;60850;52.502;13.426;2023-03-31T13:38:43;6.00;;;3.58;;
56927;SDS011;60850;52.502;13.426;2023-03-31T13:41:23;3.72;;;2.75;;
56927;SDS011;60850;52.502;13.426;2023-03-31T13:47:17;4.32;;;2.65;;
56927;SDS011;60850;52.502;13.426;2023-03-31T13:50:12;4.40;;;1.92;;
56927;SDS011;60850;52.502;13.426;2023-03-31T13:52:47;4.65;;;2.38;;
56927;SDS011;60850;52.502;13.426;2023-03-31T13:55:33;9.63;;;2.85;;
56927;SDS011;60850;52.502;13.426;2023-03-31T13:58:26;8.57;;;2.75;;
56927;SDS011;60850;52.502;13.426;2023-03-31T14:01:09;3.78;;;1.88;;
56927;SDS011;60850;52.502;13.426;2023-03-31T14:03:53;6.45;;;1.77;;
56927;SDS011;60850;52.502;13.426;2023-03-31T14:06:32;9.65;;;2.60;;
56927;SDS011;60850;52.502;13.426;2023-03-31T14:09:04;5.75;;;2.28;;
56927;SDS011;60850;52.502;13.426;2023-03-31T14:11:34;6.28;;;2.72;;
56927;SDS011;60850;52.502;13.426;2023-03-31T14:14:03;7.07;;;2.95;;
56927;SDS011;60850;52.502;13.426;2023-03-31T14:16:33;7.15;;;2.33;;
56927;SDS011;60850;52.502;13.426;2023-03-31T14:22:11;5.35;;;1.85;;
56927;SDS011;60850;52.502;13.426;2023-03-31T14:24:47;3.17;;;1.60;;
56927;SDS011;60850;52.502;13.426;2023-03-31T14:27:22;3.33;;;1.80;;
56927;SDS011;60850;52.502;13.426;2023-03-31T14:32:38;2.05;;;1.00;;
56927;SDS011;60850;52.502;13.426;2023-03-31T14:35:18;2.38;;;1.00;;
56927;SDS011;60850;52.502;13.426;2023-03-31T14:37:54;2.92;;;1.05;;
56927;SDS011;60850;52.502;13.426;2023-03-31T14:40:22;6.88;;;2.25;;
56927;SDS011;60850;52.502;13.426;2023-03-31T14:42:50;2.95;;;1.40;;
56927;SDS011;60850;52.502;13.426;2023-03-31T14:45:20;1.65;;;1.05;;
56927;SDS011;60850;52.502;13.426;2023-03-31T14:47:53;5.35;;;1.60;;
56927;SDS011;60850;52.502;13.426;2023-03-31T14:50:21;5.22;;;1.63;;
56927;SDS011;60850;52.502;13.426;2023-03-31T14:52:55;2.38;;;1.08;;
56927;SDS011;60850;52.502;13.426;2023-03-31T14:55:25;4.00;;;1.50;;
56927;SDS011;60850;52.502;13.426;2023-03-31T14:57:54;3.85;;;1.10;;
56927;SDS011;60850;52.502;13.426;2023-03-31T15:00:26;2.72;;;1.10;;
56927;SDS011;60850;52.502;13.426;2023-03-31T15:02:55;3.70;;;1.90;;
56927;SDS011;60850;52.502;13.426;2023-03-31T15:05:32;5.20;;;1.65;;
56927;SDS011;60850;52.502;13.426;2023-03-31T15:08:02;2.13;;;1.10;;
56927;SDS011;60850;52.502;13.426;2023-03-31T15:10:31;3.28;;;1.60;;
56927;SDS011;60850;52.502;13.426;2023-03-31T15:13:05;6.57;;;1.80;;
56927;SDS011;60850;52.502;13.426;2023-03-31T15:15:33;8.65;;;4.25;;
56927;SDS011;60850;52.502;13.426;2023-03-31T15:18:01;8.30;;;2.80;;
56927;SDS011;60850;52.502;13.426;2023-03-31T15:20:29;3.72;;;2.10;;
56927;SDS011;60850;52.502;13.426;2023-03-31T15:22:59;7.40;;;3.42;;